首页
METAR-TAF:

METAR-TAF

机场 :

迪奥里·哈马尼国际机场

尼亞美, 尼日尔

纬度: 13-29N, 经度: 002-10E, 海拔: 223米

当前天气观测

该预报发布于58分钟前的01:00 UTC
风速2节,风向西转西北
温度 20°C
湿度 14%
气压 1013 hPa
能見度: 8000

METAR: DRRN 230100Z 30002KT 8000 NSC 20/M08 Q1013 NOSIG

时间: 02:58 (01:58 UTC)

预报

该预报发布于2小时和58分钟前的23:00 UTC
预报有效从23日的 00点(UTC)到 24日的 06点(UTC)
风速6节,风向
能見度: 8000
短暂存在
从 23日的 06点(UTC)到 23日的 08点(UTC)
能見度: 4000
浮尘
短暂存在
从 23日的 08点(UTC)到 23日的 12点(UTC)
风速16节,风向东北
能見度: 3500
高吹尘

TAF: DRRN 222300Z 2300/2406 01006KT 8000 NSC TEMPO 2306/2308 4000 DU TEMPO 2308/2312 04016KT 3500 BLDU

超过4000个机场的气象观测和天气预报(METAR&TAF报告)。

可查询的气象台以黄色和红色小点在地图上表示。

将鼠标移到小点上方,可查看气象台名称。

然后点击查看天气观测和预报。

如需切换地图:点击带黑十字的绿色按钮放大地图;点击带横线的绿色按钮缩小地图;或者点击绿色箭头查看邻近地区的地图。


METAR-TAF: